Time;durP1;ratioP1;P1;durP2;ratioP2;P2;SDS_P1;SDS_P2;PMS_P1;PMS_P2;Temp;Humidity;BMP_temperature;BMP_pressure;BME280_temperature;BME280_humidity;BME280_pressure;Samples;Min_cycle;Max_cycle;Signal;HPM_P1;HPM_P2
2022/10/04 00:01:47;;;;;;;5.97;3.78;;;;;;;8.66;100.00;93379.00;5132046;27;20055;-69
2022/10/04 00:04:20;;;;;;;4.43;3.05;;;;;;;8.67;100.00;93373.66;5131644;27;20095;-69
2022/10/04 00:06:55;;;;;;;5.85;3.70;;;;;;;8.64;100.00;93376.63;5131862;27;21331;-69
2022/10/04 00:09:26;;;;;;;5.30;3.08;;;;;;;8.69;100.00;93386.28;5132323;27;20096;-69
2022/10/04 00:11:55;;;;;;;4.53;2.72;;;;;;;8.27;100.00;93391.41;5131367;27;20088;-69
2022/10/04 00:14:25;;;;;;;5.22;2.95;;;;;;;8.29;100.00;93385.13;5131745;27;20047;-69
2022/10/04 00:16:53;;;;;;;4.97;3.00;;;;;;;8.10;100.00;93381.50;5131563;27;20089;-69
2022/10/04 00:19:38;;;;;;;5.32;3.28;;;;;;;8.22;100.00;93381.75;5126033;27;20040;-69
2022/10/04 00:22:21;;;;;;;6.18;3.17;;;;;;;8.36;100.00;93376.69;5125196;27;20051;-69
2022/10/04 00:25:22;;;;;;;5.35;3.58;;;;;;;8.44;100.00;93358.63;5107097;27;20051;-69
2022/10/04 00:28:27;;;;;;;5.15;3.10;;;;;;;8.41;100.00;93375.16;5131571;27;20039;-69
2022/10/04 00:31:12;;;;;;;6.38;3.75;;;;;;;8.54;100.00;93379.56;5129578;27;20103;-69
2022/10/04 00:33:41;;;;;;;5.05;3.40;;;;;;;8.57;100.00;93385.25;5122194;27;20047;-69
2022/10/04 00:36:37;;;;;;;5.03;3.50;;;;;;;8.58;100.00;93374.84;5131343;27;20039;-69
2022/10/04 00:39:41;;;;;;;4.70;3.15;;;;;;;8.62;100.00;93377.78;5131435;27;20380;-69
2022/10/04 00:42:31;;;;;;;5.10;3.70;;;;;;;8.61;100.00;93371.88;5112521;27;20086;-69
2022/10/04 00:45:02;;;;;;;5.50;2.95;;;;;;;8.63;100.00;93369.13;5102802;27;20043;-69
2022/10/04 00:47:34;;;;;;;4.68;3.30;;;;;;;8.64;100.00;93365.56;5131270;27;20043;-69
2022/10/04 00:50:11;;;;;;;4.47;2.97;;;;;;;8.63;100.00;93369.13;5130960;27;20065;-69
2022/10/04 00:52:46;;;;;;;4.72;3.22;;;;;;;8.59;100.00;93365.38;5130900;27;20058;-70
2022/10/04 00:55:23;;;;;;;6.07;3.22;;;;;;;8.49;100.00;93360.59;5131031;27;20043;-69
2022/10/04 00:57:58;;;;;;;5.70;3.10;;;;;;;8.42;100.00;93368.25;5131176;27;20134;-70
2022/10/04 01:00:25;;;;;;;6.15;3.22;;;;;;;8.43;100.00;93368.06;5130666;27;20537;-70
2022/10/04 01:02:58;;;;;;;5.13;3.10;;;;;;;8.45;100.00;93364.50;5130638;27;20058;-70
2022/10/04 01:05:29;;;;;;;3.92;2.72;;;;;;;8.46;100.00;93366.09;5130895;27;20397;-69
2022/10/04 01:08:03;;;;;;;4.55;3.20;;;;;;;8.51;100.00;93369.66;5130983;27;20391;-69
2022/10/04 01:10:32;;;;;;;4.65;3.15;;;;;;;8.57;100.00;93359.66;5116756;27;20039;-70
2022/10/04 01:13:07;;;;;;;4.15;2.97;;;;;;;8.50;100.00;93360.41;5121290;27;20043;-70
2022/10/04 01:15:42;;;;;;;5.87;3.23;;;;;;;8.55;100.00;93350.41;5112227;27;20047;-69
2022/10/04 01:18:15;;;;;;;6.90;3.08;;;;;;;8.54;100.00;93363.41;5130539;27;20122;-70
2022/10/04 01:20:53;;;;;;;7.65;3.40;;;;;;;8.49;100.00;93361.38;5115646;27;20048;-70
2022/10/04 01:23:49;;;;;;;2.92;2.08;;;;;;;8.31;100.00;93368.78;5130429;27;20494;-70
2022/10/04 01:26:35;;;;;;;2.53;1.90;;;;;;;8.32;100.00;93358.38;5083032;27;20027;-70
2022/10/04 01:29:07;;;;;;;4.10;2.13;;;;;;;8.31;100.00;93354.25;5130118;27;20043;-70
2022/10/04 01:31:36;;;;;;;3.88;2.15;;;;;;;8.46;100.00;93351.53;5123041;27;20089;-70
2022/10/04 01:34:05;;;;;;;3.80;2.38;;;;;;;8.50;100.00;93352.72;5124194;27;20055;-70
2022/10/04 01:36:33;;;;;;;4.10;2.42;;;;;;;8.53;100.00;93354.91;5130619;27;20073;-70
2022/10/04 01:39:01;;;;;;;3.90;2.70;;;;;;;8.61;100.00;93348.81;5130391;27;20468;-69
2022/10/04 01:41:38;;;;;;;4.55;2.55;;;;;;;8.62;100.00;93337.63;5130035;27;20050;-70
2022/10/04 01:44:08;;;;;;;4.75;2.85;;;;;;;8.63;100.00;93346.09;5130372;27;20062;-70
2022/10/04 01:46:38;;;;;;;3.78;2.88;;;;;;;8.59;100.00;93340.56;5130243;27;20091;-70
2022/10/04 01:49:11;;;;;;;6.40;3.42;;;;;;;8.57;100.00;93344.28;5130246;27;20089;-70
2022/10/04 01:51:46;;;;;;;6.40;3.65;;;;;;;8.47;100.00;93347.22;5113395;28;20047;-70
2022/10/04 01:54:19;;;;;;;9.50;4.07;;;;;;;8.43;100.00;93339.91;5107534;28;20540;-70
2022/10/04 01:56:52;;;;;;;4.43;2.88;;;;;;;8.38;100.00;93346.59;5108774;28;20043;-70
2022/10/04 01:59:24;;;;;;;6.25;3.50;;;;;;;8.44;100.00;93338.13;5108256;28;20043;-70
2022/10/04 02:01:56;;;;;;;8.77;4.03;;;;;;;8.47;100.00;93331.84;5108627;28;20052;-70
2022/10/04 02:04:28;;;;;;;7.50;4.07;;;;;;;8.50;100.00;93339.13;5107343;28;20490;-70
2022/10/04 02:06:59;;;;;;;6.80;3.85;;;;;;;8.53;100.00;93333.66;5090737;28;20495;-70
2022/10/04 02:09:31;;;;;;;5.38;3.55;;;;;;;8.58;100.00;93333.88;5106051;28;20729;-70
2022/10/04 02:11:58;;;;;;;4.55;3.28;;;;;;;8.46;100.00;93325.16;5108328;28;20559;-70
2022/10/04 02:14:29;;;;;;;7.63;3.63;;;;;;;8.54;100.00;93336.03;5103269;28;20084;-70
2022/10/04 02:16:57;;;;;;;5.82;2.60;;;;;;;8.48;100.00;93346.22;5108624;28;20484;-70
2022/10/04 02:19:27;;;;;;;3.85;2.58;;;;;;;8.54;100.00;93340.34;5106954;28;20043;-70
2022/10/04 02:21:55;;;;;;;6.30;2.38;;;;;;;8.54;100.00;93345.47;5108496;28;20089;-70
2022/10/04 02:24:22;;;;;;;3.45;1.80;;;;;;;8.51;100.00;93356.84;5108276;28;20097;-70
2022/10/04 02:26:51;;;;;;;3.78;1.80;;;;;;;8.33;100.00;93348.94;5098160;28;20549;-70
2022/10/04 02:29:19;;;;;;;5.43;2.95;;;;;;;8.43;100.00;93339.91;5088093;28;20074;-70
2022/10/04 02:34:32;;;;;;;;;;;;;;;8.66;100.00;93341.34;5088844;28;20431;-70
2022/10/04 02:37:02;;;;;;;3.95;2.65;;;;;;;8.66;100.00;93343.91;5090986;28;19965;-70
2022/10/04 02:39:32;;;;;;;8.77;3.92;;;;;;;8.54;100.00;93341.16;5092009;28;20044;-70
2022/10/04 02:42:04;;;;;;;5.40;3.30;;;;;;;8.63;100.00;93344.31;5091727;28;20180;-70
2022/10/04 02:44:39;;;;;;;7.32;4.05;;;;;;;8.60;100.00;93336.25;5092199;28;20044;-70
2022/10/04 02:47:13;;;;;;;7.10;3.90;;;;;;;8.63;100.00;93361.44;5092247;28;20036;-70
2022/10/04 02:49:46;;;;;;;7.32;4.10;;;;;;;8.54;100.00;93359.06;5091615;28;20503;-70
2022/10/04 02:52:20;;;;;;;14.00;5.80;;;;;;;8.25;100.00;93362.69;5091758;28;20085;-70
2022/10/04 02:54:51;;;;;;;8.35;2.72;;;;;;;8.33;100.00;93370.19;5091793;28;20496;-70
2022/10/04 02:57:21;;;;;;;5.18;2.50;;;;;;;8.35;100.00;93368.25;5091776;28;20055;-70
2022/10/04 02:59:49;;;;;;;5.75;2.42;;;;;;;8.39;100.00;93364.28;5091697;28;20089;-70
2022/10/04 03:02:25;;;;;;;5.68;2.55;;;;;;;8.46;100.00;93371.22;5091335;28;20105;-70
2022/10/04 03:04:54;;;;;;;3.03;2.20;;;;;;;8.43;100.00;93373.19;5091606;28;20040;-70
2022/10/04 03:07:22;;;;;;;4.18;2.20;;;;;;;8.29;100.00;93379.25;5091466;28;20048;-70
2022/10/04 03:09:49;;;;;;;4.65;2.17;;;;;;;8.19;100.00;93376.25;5091797;28;20040;-70
2022/10/04 03:12:16;;;;;;;4.18;1.95;;;;;;;8.23;100.00;93382.53;5091736;28;20040;-70
2022/10/04 03:14:44;;;;;;;3.63;1.85;;;;;;;8.22;100.00;93381.75;5091743;28;20040;-70
2022/10/04 03:17:14;;;;;;;10.75;6.28;;;;;;;8.26;100.00;93385.53;5091632;28;20495;-70
2022/10/04 03:19:41;;;;;;;14.00;7.88;;;;;;;8.34;100.00;93368.44;5093734;28;20117;-70
2022/10/04 03:22:11;;;;;;;14.93;8.38;;;;;;;8.41;100.00;93376.91;5091191;28;20043;-70
2022/10/04 03:24:45;;;;;;;21.20;13.05;;;;;;;8.32;100.00;93391.66;5091009;28;20048;-70
2022/10/04 03:27:16;;;;;;;4.47;1.95;;;;;;;7.85;100.00;93381.97;5091437;28;20039;-70
2022/10/04 03:29:45;;;;;;;13.48;7.22;;;;;;;8.08;100.00;93380.91;5091299;28;20036;-70
2022/10/04 03:32:14;;;;;;;7.88;4.43;;;;;;;8.13;100.00;93393.13;5091430;28;20093;-70
2022/10/04 03:34:48;;;;;;;4.60;2.83;;;;;;;8.13;100.00;93386.25;5091038;28;20537;-70
2022/10/04 03:37:18;;;;;;;5.75;3.25;;;;;;;8.22;100.00;93391.19;5091190;28;20044;-70
2022/10/04 03:39:48;;;;;;;4.35;2.60;;;;;;;8.29;100.00;93397.16;5091090;28;20044;-70
2022/10/04 03:42:17;;;;;;;3.80;2.33;;;;;;;8.32;100.00;93391.66;5091217;28;20044;-70
2022/10/04 03:44:46;;;;;;;6.03;2.88;;;;;;;8.24;100.00;93382.34;5090977;28;20479;-70
2022/10/04 03:47:17;;;;;;;5.13;2.80;;;;;;;8.35;100.00;93393.84;5090694;28;20450;-70
2022/10/04 03:49:45;;;;;;;5.50;2.60;;;;;;;8.23;100.00;93395.34;5090781;28;20036;-70
2022/10/04 03:52:20;;;;;;;6.05;2.50;;;;;;;8.22;100.00;93399.69;5090676;28;20052;-70
2022/10/04 03:54:50;;;;;;;4.40;3.07;;;;;;;8.21;100.00;93385.31;5091020;28;20054;-70
2022/10/04 03:57:16;;;;;;;6.70;2.83;;;;;;;8.23;100.00;93392.78;5090915;28;20039;-70
2022/10/04 03:59:45;;;;;;;4.40;2.40;;;;;;;8.16;100.00;93398.66;5090420;28;20620;-70
2022/10/04 04:02:19;;;;;;;3.95;2.33;;;;;;;8.06;100.00;93395.66;5090199;28;20052;-70
2022/10/04 04:04:56;;;;;;;4.97;3.08;;;;;;;8.11;100.00;93395.09;5090672;28;20048;-70
2022/10/04 04:07:29;;;;;;;5.85;3.22;;;;;;;8.08;100.00;93391.16;5090785;28;20096;-70
2022/10/04 04:10:02;;;;;;;4.45;3.15;;;;;;;8.06;100.00;93394.88;5090523;28;20040;-70
2022/10/04 04:12:38;;;;;;;6.65;3.28;;;;;;;8.03;100.00;93411.38;5090268;28;20072;-70
2022/10/04 04:15:11;;;;;;;6.53;3.92;;;;;;;7.98;100.00;93404.28;5090179;28;20121;-70
2022/10/04 04:17:41;;;;;;;7.53;4.57;;;;;;;7.95;100.00;93408.97;5090034;28;20058;-70
2022/10/04 04:20:21;;;;;;;7.53;4.38;;;;;;;7.90;100.00;93412.09;5093191;28;20054;-71
2022/10/04 04:22:59;;;;;;;7.32;3.53;;;;;;;7.82;100.00;93407.91;5090335;28;20047;-70
2022/10/04 04:25:27;;;;;;;5.10;3.58;;;;;;;7.76;100.00;93403.56;5090008;28;20050;-70
2022/10/04 04:28:01;;;;;;;6.38;3.95;;;;;;;7.75;100.00;93405.34;5090033;28;20495;-70
2022/10/04 04:30:31;;;;;;;67.35;27.92;;;;;;;7.72;100.00;93405.69;5090119;28;20412;-70
2022/10/04 04:33:05;;;;;;;152.00;70.82;;;;;;;7.72;100.00;93408.25;5089704;28;20039;-70
2022/10/04 04:35:35;;;;;;;49.75;25.05;;;;;;;7.68;100.00;93408.81;5089835;28;20397;-70
2022/10/04 04:38:13;;;;;;;49.40;26.48;;;;;;;7.65;100.00;93407.44;5089614;28;20538;-70
2022/10/04 04:40:40;;;;;;;259.60;149.65;;;;;;;7.62;100.00;93413.72;5089709;28;20048;-70
2022/10/04 04:43:13;;;;;;;51.38;30.48;;;;;;;7.53;100.00;93416.56;5089841;28;20449;-70
2022/10/04 04:45:42;;;;;;;84.00;48.30;;;;;;;7.51;100.00;93419.31;5090005;28;20040;-70
2022/10/04 04:48:14;;;;;;;90.22;48.90;;;;;;;7.46;100.00;93413.97;5089660;28;20089;-70
2022/10/04 04:50:41;;;;;;;105.25;57.85;;;;;;;7.44;100.00;93418.47;5089756;28;20044;-70
2022/10/04 04:53:15;;;;;;;57.80;34.38;;;;;;;7.38;100.00;93420.00;5089789;28;20048;-70
2022/10/04 04:55:43;;;;;;;39.22;23.70;;;;;;;7.40;100.00;93428.28;5089159;28;20048;-70
2022/10/04 04:58:18;;;;;;;33.03;18.95;;;;;;;7.38;100.00;93426.88;5089177;28;20040;-70
2022/10/04 05:00:53;;;;;;;25.90;13.68;;;;;;;7.38;100.00;93431.97;5089572;28;20040;-70
2022/10/04 05:03:20;;;;;;;30.08;19.60;;;;;;;7.32;100.00;93428.41;5089405;28;20102;-70
2022/10/04 05:05:47;;;;;;;37.47;21.70;;;;;;;7.29;100.00;93429.56;5089499;28;20036;-70
2022/10/04 05:08:18;;;;;;;53.47;35.63;;;;;;;7.32;100.00;93430.97;5089393;28;20081;-70
2022/10/04 05:10:49;;;;;;;42.00;28.83;;;;;;;7.30;100.00;93431.16;5089169;28;20086;-70
2022/10/04 05:13:18;;;;;;;24.60;17.65;;;;;;;7.27;100.00;93431.50;5089386;28;20048;-70
2022/10/04 05:15:54;;;;;;;26.77;16.98;;;;;;;7.28;100.00;93438.22;5089073;28;20047;-70
2022/10/04 05:18:31;;;;;;;;;;;;;;;7.32;100.00;93441.19;5089614;28;20616;-69
2022/10/04 05:21:04;;;;;;;23.15;15.27;;;;;;;7.24;100.00;93438.75;5091676;28;19992;-70
2022/10/04 05:23:32;;;;;;;16.23;12.43;;;;;;;7.26;100.00;93442.69;5089181;28;20060;-70
2022/10/04 05:26:01;;;;;;;13.43;9.48;;;;;;;7.30;100.00;93449.03;5089223;28;20044;-70
2022/10/04 05:28:28;;;;;;;12.88;8.50;;;;;;;7.35;100.00;93448.47;5088955;28;20438;-70
2022/10/04 05:31:15;;;;;;;11.75;7.50;;;;;;;7.35;100.00;93451.84;5088981;28;20085;-70
2022/10/04 05:33:46;;;;;;;12.27;8.52;;;;;;;7.35;100.00;93456.13;5090009;27;20434;-70
2022/10/04 05:36:41;;;;;;;13.05;7.38;;;;;;;7.29;100.00;93461.97;5086948;28;20090;-70
2022/10/04 05:39:15;;;;;;;12.60;8.43;;;;;;;7.24;100.00;93446.41;5088366;28;20050;-70
2022/10/04 05:41:50;;;;;;;11.77;7.28;;;;;;;7.26;100.00;93460.59;5088544;28;20097;-70
2022/10/04 05:44:24;;;;;;;11.55;8.07;;;;;;;7.28;100.00;93462.97;5088972;28;20094;-70
2022/10/04 05:46:54;;;;;;;16.38;8.00;;;;;;;7.25;100.00;93468.44;5088931;28;20059;-69
2022/10/04 05:49:24;;;;;;;10.85;6.78;;;;;;;7.20;100.00;93461.31;5088787;28;20040;-70
2022/10/04 05:51:54;;;;;;;10.75;7.53;;;;;;;7.28;100.00;93474.00;5088620;28;20040;-70
2022/10/04 05:54:23;;;;;;;13.65;8.27;;;;;;;7.32;100.00;93469.31;5088368;28;20557;-70
2022/10/04 05:57:27;;;;;;;17.23;13.50;;;;;;;7.39;100.00;93469.34;5088802;28;20036;-70
2022/10/04 06:00:08;;;;;;;14.15;9.70;;;;;;;7.46;100.00;93470.97;5108948;28;21117;-70
2022/10/04 06:02:54;;;;;;;14.57;8.70;;;;;;;7.55;100.00;93476.75;5129576;28;20137;-70
2022/10/04 06:05:28;;;;;;;13.88;8.25;;;;;;;7.67;100.00;93484.72;5129910;28;20043;-70
2022/10/04 06:08:01;;;;;;;15.68;8.20;;;;;;;7.78;100.00;93485.97;5129765;28;20039;-69
2022/10/04 06:10:48;;;;;;;12.38;8.48;;;;;;;7.88;100.00;93486.44;5130199;27;20055;-70
2022/10/04 06:13:36;;;;;;;10.20;7.68;;;;;;;8.01;100.00;93493.44;5120752;27;20088;-70
2022/10/04 06:16:20;;;;;;;8.80;7.00;;;;;;;8.10;100.00;93499.19;5133821;27;20142;-70
2022/10/04 06:19:22;;;;;;;9.57;6.63;;;;;;;8.12;100.00;93504.94;5133588;27;20380;-70
2022/10/04 06:22:05;;;;;;;9.75;6.20;;;;;;;8.16;100.00;93505.34;5125042;27;20686;-70
2022/10/04 06:24:36;;;;;;;10.05;6.78;;;;;;;8.21;100.00;93515.81;5133483;27;20564;-70
2022/10/04 06:27:09;;;;;;;10.05;6.72;;;;;;;8.36;100.00;93507.22;5133823;27;20057;-70
2022/10/04 06:29:39;;;;;;;8.68;5.82;;;;;;;8.38;100.00;93497.59;5133943;27;20090;-70
2022/10/04 06:32:35;;;;;;;10.38;5.40;;;;;;;8.54;100.00;93517.00;5133853;27;20047;-70
2022/10/04 06:35:33;;;;;;;9.18;6.60;;;;;;;8.66;100.00;93523.19;5133611;27;20487;-69
2022/10/04 06:38:23;;;;;;;11.77;7.93;;;;;;;8.28;100.00;93441.63;5133192;27;20043;-70
2022/10/04 06:41:03;;;;;;;17.73;9.48;;;;;;;8.95;100.00;93529.00;5133208;27;20043;-70
2022/10/04 06:43:47;;;;;;;12.90;7.82;;;;;;;8.92;100.00;93538.84;5133563;27;20047;-70
2022/10/04 06:46:23;;;;;;;9.43;6.20;;;;;;;8.78;100.00;93530.31;5133493;27;20039;-70
2022/10/04 06:49:34;;;;;;;8.55;6.25;;;;;;;8.81;100.00;93538.41;5133276;27;20058;-70
2022/10/04 06:52:33;;;;;;;10.40;6.68;;;;;;;8.96;100.00;93537.50;5124588;27;20448;-69
2022/10/04 06:55:19;;;;;;;9.88;5.85;;;;;;;9.08;100.00;93543.66;5118459;27;20043;-70
2022/10/04 06:58:07;;;;;;;6.40;4.50;;;;;;;9.14;100.00;93542.09;5133139;27;20494;-70
2022/10/04 07:00:41;;;;;;;7.53;4.82;;;;;;;9.26;100.00;93541.53;5123569;27;20097;-70
2022/10/04 07:03:14;;;;;;;7.93;4.88;;;;;;;9.40;100.00;93548.28;5124189;27;21219;-71
2022/10/04 07:05:46;;;;;;;7.90;4.60;;;;;;;9.56;100.00;93543.78;5133107;27;20047;-70
2022/10/04 07:08:29;;;;;;;9.27;5.80;;;;;;;9.68;100.00;93549.13;5132745;27;20051;-70
2022/10/04 07:10:59;;;;;;;9.30;6.65;;;;;;;9.76;100.00;93538.66;5133000;27;20411;-70
2022/10/04 07:13:39;;;;;;;9.82;6.57;;;;;;;9.93;100.00;93556.25;5132739;27;20047;-70
2022/10/04 07:16:17;;;;;;;8.77;6.03;;;;;;;10.02;100.00;93547.38;5133010;27;20049;-70
2022/10/04 07:18:53;;;;;;;10.48;6.82;;;;;;;10.10;100.00;93551.53;5132404;27;20080;-70
2022/10/04 07:21:21;;;;;;;;;;;;;;;10.15;100.00;93554.28;5119636;27;20075;-70
2022/10/04 07:23:53;;;;;;;11.32;6.90;;;;;;;10.18;100.00;93553.88;5132600;27;19919;-70
2022/10/04 07:26:26;;;;;;;7.30;4.38;;;;;;;10.19;100.00;93562.38;5132444;27;20491;-70
2022/10/04 07:31:44;;;;;;;9.60;5.25;;;;;;;10.29;100.00;93560.97;5105989;27;20078;-70
2022/10/04 07:34:15;;;;;;;7.63;4.93;;;;;;;10.31;100.00;93554.88;5131330;27;20455;-70
2022/10/04 07:36:46;;;;;;;7.00;4.32;;;;;;;10.43;100.00;93572.06;5105580;27;20433;-70
2022/10/04 07:39:18;;;;;;;6.00;3.78;;;;;;;10.50;100.00;93569.50;5131985;27;20043;-70
2022/10/04 07:41:51;;;;;;;6.82;4.63;;;;;;;10.64;100.00;93569.47;5132412;27;20051;-70
2022/10/04 07:44:33;;;;;;;8.23;4.30;;;;;;;10.76;100.00;93565.31;5132205;27;20422;-70
2022/10/04 07:47:09;;;;;;;8.27;5.57;;;;;;;10.82;100.00;93574.78;5132324;27;20053;-70
2022/10/04 07:49:40;;;;;;;6.43;4.22;;;;;;;10.75;100.00;93579.16;5132059;27;20673;-70
2022/10/04 07:52:44;;;;;;;6.30;3.70;;;;;;;10.55;100.00;93589.44;5132011;27;20035;-70
2022/10/04 07:55:22;;;;;;;10.20;3.92;;;;;;;10.56;100.00;93583.31;5114056;27;20047;-70
2022/10/04 07:58:00;;;;;;;6.00;3.22;;;;;;;10.68;100.00;93586.06;5132135;27;20051;-70
2022/10/04 08:00:37;;;;;;;4.88;3.00;;;;;;;10.45;100.00;93586.50;5131810;27;20456;-70
2022/10/04 08:03:23;;;;;;;5.20;2.97;;;;;;;10.45;100.00;93592.41;5131953;27;20547;-70
2022/10/04 08:05:58;;;;;;;4.47;1.63;;;;;;;10.32;98.95;93597.53;5131564;27;20047;-70
2022/10/04 08:08:43;;;;;;;2.87;1.90;;;;;;;10.28;100.00;93586.88;5131751;27;20556;-70
2022/10/04 08:11:24;;;;;;;4.43;2.40;;;;;;;10.30;100.00;93587.47;5131447;27;20103;-70
2022/10/04 08:13:58;;;;;;;5.38;2.22;;;;;;;10.14;99.94;93571.47;5131806;27;20499;-70
2022/10/04 08:16:35;;;;;;;3.28;2.28;;;;;;;10.10;99.38;93582.31;5131821;27;20104;-70
2022/10/04 08:19:21;;;;;;;3.65;2.17;;;;;;;10.12;98.90;93588.84;5129179;27;20099;-70
2022/10/04 08:21:57;;;;;;;4.10;1.40;;;;;;;10.10;98.37;93590.81;5123011;27;20043;-70
2022/10/04 08:24:28;;;;;;;;;;;;;;;10.12;98.50;93595.75;5132060;27;20108;-70
2022/10/04 08:27:21;;;;;;;2.00;1.30;;;;;;;10.07;99.67;93591.22;5131539;27;19920;-70
2022/10/04 08:30:11;;;;;;;2.38;1.05;;;;;;;10.07;96.73;93593.78;5131708;27;20047;-70
2022/10/04 08:32:55;;;;;;;2.45;1.60;;;;;;;10.18;99.19;93592.38;5130886;27;20047;-70
2022/10/04 08:35:38;;;;;;;7.40;2.40;;;;;;;10.25;98.03;93592.41;5123341;27;20085;-70
2022/10/04 08:38:43;;;;;;;3.15;1.70;;;;;;;10.14;97.33;93598.91;5090394;28;20047;-70
2022/10/04 08:41:58;;;;;;;1.98;1.20;;;;;;;9.95;98.07;93597.91;5108927;28;20510;-70
2022/10/04 08:45:03;;;;;;;1.60;1.13;;;;;;;10.00;97.13;93593.00;5109628;28;20491;-70
2022/10/04 08:48:21;;;;;;;4.05;1.33;;;;;;;10.12;97.28;93596.53;5101592;28;20487;-70
2022/10/04 08:51:22;;;;;;;6.53;3.85;;;;;;;10.39;98.05;93596.56;5105260;28;20071;-70
2022/10/04 08:54:40;;;;;;;4.57;1.65;;;;;;;10.50;97.62;93605.44;5089423;28;20097;-70
2022/10/04 08:57:24;;;;;;;2.55;1.80;;;;;;;10.64;93.12;93601.09;5102591;28;20084;-70
2022/10/04 09:00:14;;;;;;;4.10;1.90;;;;;;;10.89;93.41;93590.19;5108012;28;20039;-70
2022/10/04 09:03:05;;;;;;;3.60;2.20;;;;;;;10.84;93.43;93587.44;5109390;28;20062;-70
2022/10/04 09:05:52;;;;;;;3.13;2.03;;;;;;;11.14;96.94;93588.69;5107139;28;20105;-70
2022/10/04 09:08:54;;;;;;;3.45;1.35;;;;;;;11.28;93.40;93594.59;5115648;27;20388;-70
2022/10/04 09:11:45;;;;;;;3.65;1.90;;;;;;;11.27;95.49;93590.44;5123244;27;20130;-70
2022/10/04 09:14:47;;;;;;;3.35;1.63;;;;;;;11.31;94.49;93581.31;5130537;27;20050;-70
2022/10/04 09:17:22;;;;;;;7.50;2.60;;;;;;;11.33;93.63;93585.28;5117384;27;20043;-70
2022/10/04 09:20:19;;;;;;;6.43;2.60;;;;;;;11.55;96.34;93589.31;5121318;27;20048;-70
2022/10/04 09:22:48;;;;;;;5.55;2.42;;;;;;;11.65;94.74;93587.09;5127594;27;20055;-70
2022/10/04 09:26:04;;;;;;;3.85;2.15;;;;;;;11.50;93.38;93592.53;5122233;27;20092;-70
2022/10/04 09:29:02;;;;;;;2.35;1.80;;;;;;;11.57;91.27;93592.50;5115047;27;20449;-70
2022/10/04 09:31:55;;;;;;;4.82;2.40;;;;;;;11.60;92.99;93597.22;5122393;27;20571;-70
2022/10/04 09:34:41;;;;;;;3.17;1.98;;;;;;;11.73;92.39;93598.94;5110458;27;20559;-70
2022/10/04 09:37:31;;;;;;;3.80;2.47;;;;;;;11.94;93.35;93587.50;5108547;28;20079;-70
2022/10/04 09:40:43;;;;;;;3.72;1.77;;;;;;;11.90;90.89;93589.72;5100089;27;20433;-70
2022/10/04 09:43:54;;;;;;;4.15;1.60;;;;;;;11.96;91.61;93595.84;5129931;27;20115;-70
2022/10/04 09:46:39;;;;;;;2.75;1.50;;;;;;;11.58;89.15;93588.91;5129647;27;20062;-70
2022/10/04 09:49:15;;;;;;;;;;;;;;;11.66;91.41;93591.25;5121116;27;20039;-70
2022/10/04 09:52:13;;;;;;;3.25;2.10;;;;;;;11.59;92.40;93590.50;5125762;28;19923;-70
2022/10/04 09:54:58;;;;;;;3.58;2.28;;;;;;;11.70;94.71;93589.03;5130079;28;20054;-70
2022/10/04 09:57:41;;;;;;;2.20;1.85;;;;;;;11.94;92.81;93579.00;5129761;28;20551;-70
2022/10/04 10:00:21;;;;;;;2.67;1.95;;;;;;;12.24;91.26;93581.78;5121175;28;20048;-70
2022/10/04 10:03:14;;;;;;;3.17;1.90;;;;;;;12.65;88.48;93579.63;5130098;28;20107;-70
2022/10/04 10:06:21;;;;;;;3.38;2.33;;;;;;;13.15;88.74;93572.78;5091406;28;20044;-70
2022/10/04 10:09:07;;;;;;;2.63;2.20;;;;;;;13.45;83.52;93589.31;5100828;28;20043;-71
2022/10/04 10:15:07;;;;;;;3.08;2.30;;;;;;;13.42;83.51;93587.94;5130096;28;20339;-70
2022/10/04 10:17:41;;;;;;;2.88;2.30;;;;;;;13.08;82.94;93583.19;5046412;28;20045;-70
2022/10/04 10:20:29;;;;;;;3.95;2.33;;;;;;;13.22;84.65;93583.81;5102075;28;20486;-71
2022/10/04 10:23:14;;;;;;;2.58;1.95;;;;;;;13.20;83.78;93585.81;5102422;28;20043;-71
2022/10/04 10:25:52;;;;;;;;;;;;;;;13.25;83.65;93586.97;5130107;28;20051;-71
2022/10/04 10:29:03;;;;;;;3.08;2.30;;;;;;;13.38;83.08;93593.75;5100350;28;19977;-70
2022/10/04 10:31:55;;;;;;;5.45;2.80;;;;;;;13.48;81.66;93583.75;5071753;28;20043;-71
2022/10/04 10:35:03;;;;;;;2.55;1.75;;;;;;;13.04;82.47;93581.22;5129563;28;20122;-70
2022/10/04 10:37:46;;;;;;;2.25;1.77;;;;;;;13.21;83.69;93591.78;5019918;28;20442;-71
2022/10/04 10:40:43;;;;;;;2.90;2.00;;;;;;;13.31;81.58;93581.72;5089914;28;20041;-71
2022/10/04 10:43:41;;;;;;;3.88;2.53;;;;;;;13.23;81.07;93569.13;5089191;28;20089;-71
2022/10/04 10:46:28;;;;;;;2.35;2.10;;;;;;;13.52;81.03;93571.97;5088042;28;20078;-71
2022/10/04 10:49:31;;;;;;;2.95;2.20;;;;;;;13.68;81.50;93588.66;5112121;28;20044;-71
2022/10/04 10:52:53;;;;;;;2.70;1.85;;;;;;;12.90;83.25;93590.91;5116729;28;20146;-70
2022/10/04 10:55:31;;;;;;;4.13;2.17;;;;;;;12.70;82.39;93599.63;5010087;28;20050;-70
2022/10/04 10:58:30;;;;;;;2.67;1.80;;;;;;;12.70;83.20;93594.47;5005539;28;20049;-70
2022/10/04 11:01:15;;;;;;;2.38;1.95;;;;;;;13.14;87.33;93591.06;5089916;27;20047;-70
2022/10/04 11:04:23;;;;;;;3.28;2.28;;;;;;;13.41;83.45;93591.53;5132997;27;20092;-70
2022/10/04 11:07:40;;;;;;;2.60;2.10;;;;;;;13.42;80.63;93598.25;5095780;27;20096;-71
2022/10/04 11:10:54;;;;;;;2.80;2.20;;;;;;;12.71;82.97;93601.22;5098145;27;20105;-71
2022/10/04 11:13:59;;;;;;;4.38;2.72;;;;;;;12.90;84.41;93602.00;5125289;27;20035;-71
2022/10/04 11:16:56;;;;;;;2.97;2.35;;;;;;;13.22;84.81;93591.56;5131077;27;20068;-71
2022/10/04 11:19:49;;;;;;;3.67;2.53;;;;;;;13.54;84.11;93594.97;5127572;27;20048;-71
2022/10/04 11:22:58;;;;;;;3.15;1.92;;;;;;;13.51;79.88;93598.00;5127875;27;20054;-71
2022/10/04 11:25:58;;;;;;;2.85;2.08;;;;;;;13.39;79.53;93598.72;5132584;27;20051;-70
2022/10/04 11:28:37;;;;;;;3.17;1.80;;;;;;;13.27;78.67;93606.38;5111615;27;20084;-71
2022/10/04 11:31:40;;;;;;;2.28;1.83;;;;;;;13.32;81.63;93609.09;5129782;27;20460;-70
2022/10/04 11:34:56;;;;;;;2.75;2.03;;;;;;;13.48;81.29;93606.97;5132676;27;20392;-70
2022/10/04 11:37:42;;;;;;;3.30;1.90;;;;;;;13.59;80.39;93608.00;5131160;27;20054;-70
2022/10/04 11:40:28;;;;;;;3.22;1.75;;;;;;;13.71;80.19;93615.81;5132395;27;20040;-71
2022/10/04 11:43:17;;;;;;;2.63;1.92;;;;;;;13.72;80.41;93601.91;5100147;27;20445;-71
2022/10/04 11:46:13;;;;;;;2.10;1.60;;;;;;;13.76;80.00;93603.03;5131183;27;20077;-71
2022/10/04 11:48:53;;;;;;;2.30;2.00;;;;;;;13.84;80.56;93602.72;5132234;27;20047;-71
2022/10/04 11:51:57;;;;;;;2.83;2.08;;;;;;;14.04;79.98;93614.56;5131876;27;20039;-71
2022/10/04 11:54:59;;;;;;;3.80;2.00;;;;;;;14.04;79.46;93612.00;5131961;27;20043;-70
2022/10/04 11:57:37;;;;;;;2.60;1.88;;;;;;;13.89;76.79;93615.75;5132291;27;20051;-70
2022/10/04 12:00:15;;;;;;;4.18;2.15;;;;;;;14.03;79.04;93602.69;5132120;27;20116;-70
2022/10/04 12:03:32;;;;;;;2.83;1.70;;;;;;;14.12;76.69;93621.22;5131463;27;20051;-70
2022/10/04 12:06:24;;;;;;;2.92;2.30;;;;;;;13.51;80.49;93616.06;5048028;28;20099;-71
2022/10/04 12:09:04;;;;;;;2.50;1.95;;;;;;;13.54;80.17;93611.25;5047014;28;20091;-71
2022/10/04 12:15:37;;;;;;;2.35;2.10;;;;;;;13.84;77.79;93609.69;5132102;27;20050;-70
2022/10/04 12:18:45;;;;;;;3.88;1.83;;;;;;;13.89;79.76;93608.00;5132297;27;20059;-70
2022/10/04 12:21:29;;;;;;;2.78;2.10;;;;;;;14.19;79.40;93605.59;5104026;27;20088;-70
2022/10/04 12:24:08;;;;;;;3.03;1.98;;;;;;;14.30;77.12;93617.75;5131379;27;20089;-71
2022/10/04 12:27:04;;;;;;;2.75;2.35;;;;;;;14.30;75.90;93615.97;5131654;27;20054;-71
2022/10/04 12:30:14;;;;;;;3.58;2.15;;;;;;;13.63;78.74;93606.59;5131424;27;20058;-70
2022/10/04 12:32:45;;;;;;;3.10;2.13;;;;;;;13.39;78.80;93618.56;5091756;27;20044;-70
2022/10/04 12:35:29;;;;;;;4.15;2.00;;;;;;;13.09;79.23;93610.53;5131063;27;20503;-70
2022/10/04 12:38:26;;;;;;;3.78;2.92;;;;;;;13.33;82.16;93605.50;5131073;27;20498;-71
2022/10/04 12:41:04;;;;;;;4.35;3.40;;;;;;;13.26;79.91;93619.50;5114022;27;20047;-71
2022/10/04 12:43:39;;;;;;;5.03;3.00;;;;;;;13.38;80.71;93604.84;5131292;27;20108;-71
2022/10/04 12:46:22;;;;;;;4.50;2.85;;;;;;;13.73;79.50;93618.97;5131172;27;20050;-71
2022/10/04 12:49:03;;;;;;;6.32;3.40;;;;;;;13.89;79.52;93615.00;5131061;27;20047;-71